createdAt,value
2022-11-24T00:01:30.554Z,100118.69
2022-11-24T00:04:02.834Z,100113.44
2022-11-24T00:06:29.895Z,100116.06
2022-11-24T00:08:57.166Z,100109.09
2022-11-24T00:11:29.118Z,100116.94
2022-11-24T00:13:56.176Z,100146.66
2022-11-24T00:16:24.079Z,100157.13
2022-11-24T00:18:56.016Z,100166.72
2022-11-24T00:21:23.367Z,100157.13
2022-11-24T00:23:50.617Z,100151.88
2022-11-24T00:26:25.131Z,100157.13
2022-11-24T00:28:53.490Z,100154.50
2022-11-24T00:31:35.098Z,100157.97
2022-11-24T00:34:04.394Z,100164.13
2022-11-24T00:36:32.861Z,100149.25
2022-11-24T00:39:02.164Z,100153.66
2022-11-24T00:41:29.505Z,100157.97
2022-11-24T00:43:56.859Z,100163.22
2022-11-24T00:46:23.897Z,100163.22
2022-11-24T00:48:50.927Z,100172.84
2022-11-24T00:51:19.127Z,100178.09
2022-11-24T00:53:45.595Z,100177.22
2022-11-24T00:56:12.520Z,100193.81
2022-11-24T00:58:39.557Z,100173.72
2022-11-24T01:01:12.671Z,100174.59
2022-11-24T01:03:39.662Z,100185.97
2022-11-24T01:06:14.841Z,100172.84
2022-11-24T01:08:42.287Z,100182.44
2022-11-24T01:11:17.949Z,100186.81
2022-11-24T01:13:47.048Z,100189.44
2022-11-24T01:16:25.842Z,100194.66
2022-11-24T01:18:52.896Z,100187.66
2022-11-24T01:21:20.288Z,100198.16
2022-11-24T01:23:46.932Z,100180.66
2022-11-24T01:26:18.659Z,100186.78
2022-11-24T01:28:47.594Z,100193.78
2022-11-24T01:31:15.531Z,100185.03
2022-11-24T01:33:42.334Z,100185.00
2022-11-24T01:36:08.774Z,100197.22
2022-11-24T01:38:35.281Z,100198.09
2022-11-24T01:41:08.476Z,100205.09
2022-11-24T01:43:34.934Z,100205.06
2022-11-24T01:46:39.064Z,100199.84
2022-11-24T01:49:08.534Z,100199.84
2022-11-24T01:51:42.298Z,100200.69
2022-11-24T01:54:14.045Z,100199.81
2022-11-24T01:56:43.548Z,100196.28
2022-11-24T01:59:13.858Z,100199.81
2022-11-24T02:01:40.396Z,100211.16
2022-11-24T02:04:11.516Z,100210.31
2022-11-24T02:06:40.781Z,100209.44
2022-11-24T02:09:10.509Z,100214.69
2022-11-24T02:11:40.419Z,100223.38
2022-11-24T02:14:10.377Z,100224.25
2022-11-24T02:16:37.379Z,100221.63
2022-11-24T02:19:14.623Z,100241.72
2022-11-24T02:21:41.149Z,100238.22
2022-11-24T02:24:21.818Z,100241.75
2022-11-24T02:26:49.650Z,100247.00
2022-11-24T02:29:16.055Z,100243.50
2022-11-24T02:31:47.987Z,100249.63
2022-11-24T02:34:14.636Z,100252.25
2022-11-24T02:36:41.031Z,100247.03
2022-11-24T02:39:14.790Z,100249.66
2022-11-24T02:41:59.406Z,100256.66
2022-11-24T02:44:30.437Z,100254.03
2022-11-24T02:47:09.154Z,100252.31
2022-11-24T02:49:36.092Z,100261.91
2022-11-24T02:52:03.284Z,100253.16
2022-11-24T02:54:29.704Z,100275.00
2022-11-24T02:56:56.487Z,100268.88
2022-11-24T02:59:23.354Z,100266.25
2022-11-24T03:01:49.964Z,100271.50
2022-11-24T03:04:16.409Z,100274.13
2022-11-24T03:06:43.355Z,100268.00
2022-11-24T03:09:11.391Z,100271.53
2022-11-24T03:11:38.894Z,100269.78
2022-11-24T03:14:06.051Z,100282.88
2022-11-24T03:16:33.079Z,100264.53
2022-11-24T03:18:59.762Z,100266.31
2022-11-24T03:21:29.182Z,100272.38
2022-11-24T03:23:55.604Z,100270.66
2022-11-24T03:26:23.921Z,100269.75
2022-11-24T03:28:55.653Z,100274.13
2022-11-24T03:31:23.501Z,100264.50
2022-11-24T03:33:50.035Z,100273.25
2022-11-24T03:36:16.800Z,100275.00
2022-11-24T03:38:43.628Z,100274.13
2022-11-24T03:41:14.879Z,100276.75
2022-11-24T03:43:44.037Z,100283.72
2022-11-24T03:46:11.910Z,100283.72
2022-11-24T03:48:38.380Z,100276.72
2022-11-24T03:51:04.919Z,100283.72
2022-11-24T03:53:33.591Z,100280.25
2022-11-24T03:56:00.851Z,100283.72
2022-11-24T03:58:27.807Z,100288.94
2022-11-24T04:00:55.909Z,100292.41
2022-11-24T04:03:22.487Z,100300.28
2022-11-24T04:05:49.293Z,100302.94
2022-11-24T04:08:16.231Z,100297.66
2022-11-24T04:10:43.119Z,100314.28
2022-11-24T04:13:15.137Z,100323.03
2022-11-24T04:15:43.057Z,100320.41
2022-11-24T04:18:11.473Z,100325.69
2022-11-24T04:20:38.516Z,100334.44
2022-11-24T04:23:04.997Z,100335.31
2022-11-24T04:25:31.872Z,100331.81
2022-11-24T04:27:58.390Z,100343.13
2022-11-24T04:30:26.428Z,100339.66
2022-11-24T04:32:53.142Z,100337.91
2022-11-24T04:35:19.810Z,100347.53
2022-11-24T04:37:46.598Z,100344.91
2022-11-24T04:40:13.578Z,100354.53
2022-11-24T04:42:40.102Z,100359.78
2022-11-24T04:45:07.494Z,100365.88
2022-11-24T04:47:34.048Z,100366.78
2022-11-24T04:50:00.466Z,100377.28
2022-11-24T04:52:27.015Z,100369.41
2022-11-24T04:54:53.604Z,100382.53
2022-11-24T04:57:22.839Z,100389.53
2022-11-24T04:59:53.030Z,100390.41
2022-11-24T05:02:23.316Z,100389.50
2022-11-24T05:04:49.816Z,100393.91
2022-11-24T05:07:19.000Z,100399.16
2022-11-24T05:10:05.208Z,100403.53
2022-11-24T05:12:31.706Z,100408.75
2022-11-24T05:14:59.499Z,100403.53
2022-11-24T05:17:31.427Z,100421.88
2022-11-24T05:19:58.350Z,100421.88
2022-11-24T05:22:25.301Z,100417.47
2022-11-24T05:24:51.713Z,100425.28
2022-11-24T05:27:18.121Z,100432.25
2022-11-24T05:29:44.452Z,100444.44
2022-11-24T05:32:10.931Z,100449.69
2022-11-24T05:34:37.849Z,100456.66
2022-11-24T05:37:04.775Z,100474.97
2022-11-24T05:39:32.871Z,100470.56
2022-11-24T05:41:59.538Z,100467.91
2022-11-24T05:44:25.976Z,100469.66
2022-11-24T05:46:52.383Z,100477.50
2022-11-24T05:49:19.301Z,100482.72
2022-11-24T05:51:45.701Z,100487.09
2022-11-24T05:54:12.038Z,100490.59
2022-11-24T05:56:38.459Z,100506.28
2022-11-24T05:59:09.612Z,100504.50
2022-11-24T06:01:36.515Z,100507.13
2022-11-24T06:04:02.944Z,100507.94
2022-11-24T06:06:29.383Z,100510.53
2022-11-24T06:08:55.740Z,100516.59
2022-11-24T06:11:25.311Z,100517.41
2022-11-24T06:13:51.747Z,100524.38
2022-11-24T06:16:18.586Z,100522.59
2022-11-24T06:18:45.148Z,100526.91
2022-11-24T06:21:14.356Z,100529.53
2022-11-24T06:23:40.940Z,100539.13
2022-11-24T06:26:07.724Z,100540.81
2022-11-24T06:28:34.058Z,100541.69
2022-11-24T06:31:04.204Z,100560.88
2022-11-24T06:33:33.428Z,100561.72
2022-11-24T06:36:05.374Z,100564.31
2022-11-24T06:38:32.528Z,100563.47
2022-11-24T06:41:11.819Z,100566.09
2022-11-24T06:43:38.614Z,100565.16
2022-11-24T06:46:05.491Z,100578.19
2022-11-24T06:48:32.113Z,100590.41
2022-11-24T06:51:03.576Z,100594.75
2022-11-24T06:53:31.509Z,100600.81
2022-11-24T06:56:02.061Z,100606.03
2022-11-24T06:58:28.428Z,100598.13
2022-11-24T07:00:54.881Z,100598.13
2022-11-24T07:03:21.665Z,100603.41
2022-11-24T07:05:48.133Z,100606.03
2022-11-24T07:08:17.969Z,100616.53
2022-11-24T07:10:44.701Z,100608.63
2022-11-24T07:13:11.166Z,100627.00
2022-11-24T07:15:37.609Z,100632.19
2022-11-24T07:18:09.837Z,100624.31
2022-11-24T07:20:39.072Z,100638.28
2022-11-24T07:23:06.680Z,100632.16
2022-11-24T07:25:33.034Z,100640.88
2022-11-24T07:27:59.954Z,100655.72
2022-11-24T07:30:27.694Z,100664.44
2022-11-24T07:33:01.474Z,100667.13
2022-11-24T07:35:29.186Z,100669.78
2022-11-24T07:37:56.694Z,100680.28
2022-11-24T07:40:24.017Z,100689.91
2022-11-24T07:42:50.569Z,100690.78
2022-11-24T07:45:17.053Z,100691.69
2022-11-24T07:47:43.582Z,100702.19
2022-11-24T07:50:11.273Z,100710.06
2022-11-24T07:52:38.404Z,100707.44
2022-11-24T07:55:05.541Z,100713.59
2022-11-24T07:57:31.960Z,100724.94
2022-11-24T07:59:58.271Z,100729.31
2022-11-24T08:02:24.694Z,100745.91
2022-11-24T08:04:51.311Z,100741.59
2022-11-24T08:07:17.776Z,100749.50
2022-11-24T08:09:44.237Z,100747.78
2022-11-24T08:12:10.567Z,100746.94
2022-11-24T08:14:37.066Z,100746.94
2022-11-24T08:17:03.839Z,100736.53
2022-11-24T08:19:32.992Z,100744.47
2022-11-24T08:21:59.357Z,100739.25
2022-11-24T08:24:27.335Z,100757.56
2022-11-24T08:26:53.753Z,100755.78
2022-11-24T08:29:20.219Z,100763.63
2022-11-24T08:31:46.638Z,100771.50
2022-11-24T08:34:13.156Z,100773.22
2022-11-24T08:36:39.713Z,100778.41
2022-11-24T08:39:06.272Z,100773.13
2022-11-24T08:41:33.231Z,100782.78
2022-11-24T08:43:59.604Z,100780.16
2022-11-24T08:46:26.041Z,100784.53
2022-11-24T08:48:55.658Z,100786.38
2022-11-24T08:51:27.287Z,100787.47
2022-11-24T08:53:58.350Z,100795.63
2022-11-24T08:56:29.974Z,100804.63
2022-11-24T08:58:57.125Z,100799.56
2022-11-24T09:01:24.759Z,100796.25
2022-11-24T09:03:52.128Z,100797.19
2022-11-24T09:06:22.764Z,100806.09
2022-11-24T09:08:49.884Z,100804.66
2022-11-24T09:11:17.211Z,100797.78
2022-11-24T09:13:44.551Z,100812.91
2022-11-24T09:16:19.002Z,100809.56
2022-11-24T09:18:48.920Z,100803.63
2022-11-24T09:21:18.806Z,100813.41
2022-11-24T09:23:50.232Z,100814.38
2022-11-24T09:26:20.449Z,100817.97
2022-11-24T09:28:48.016Z,100828.56
2022-11-24T09:31:20.639Z,100831.22
2022-11-24T09:33:47.261Z,100835.63
2022-11-24T09:36:14.552Z,100832.13
2022-11-24T09:38:41.353Z,100833.00
2022-11-24T09:41:23.126Z,100840.88
2022-11-24T09:44:14.774Z,100847.03
2022-11-24T09:47:18.494Z,100858.47
2022-11-24T09:49:58.411Z,100863.75
2022-11-24T09:52:48.135Z,100861.00
2022-11-24T09:55:39.768Z,100866.09
2022-11-24T09:58:18.563Z,100870.34
2022-11-24T10:00:46.657Z,100865.66
2022-11-24T10:03:19.708Z,100859.09
2022-11-24T10:05:50.189Z,100861.38
2022-11-24T10:08:33.279Z,100875.13
2022-11-24T10:11:02.793Z,100881.09
2022-11-24T10:14:06.953Z,100872.97
2022-11-24T10:16:36.408Z,100887.38
2022-11-24T10:19:37.905Z,100887.41
2022-11-24T10:22:22.312Z,100886.03
2022-11-24T10:25:07.909Z,100891.22
2022-11-24T10:27:39.198Z,100898.09
2022-11-24T10:30:15.415Z,100898.69
2022-11-24T10:32:46.541Z,100899.31
2022-11-24T10:35:22.407Z,100906.03
2022-11-24T10:37:53.682Z,100906.69
2022-11-24T10:40:57.413Z,100908.34
2022-11-24T10:43:28.466Z,100908.22
2022-11-24T10:46:04.954Z,100914.19
2022-11-24T10:48:49.588Z,100914.13
2022-11-24T10:51:28.009Z,100926.97
2022-11-24T10:54:01.478Z,100927.81
2022-11-24T10:56:38.733Z,100933.66
2022-11-24T10:59:20.538Z,100936.75
2022-11-24T11:01:47.254Z,100928.88
2022-11-24T11:04:31.636Z,100924.41
2022-11-24T11:07:30.249Z,100926.78
2022-11-24T11:10:22.725Z,100923.44
2022-11-24T11:12:49.313Z,100929.94
2022-11-24T11:15:41.919Z,100925.09
2022-11-24T11:18:16.156Z,100937.25
2022-11-24T11:20:50.536Z,100936.03
2022-11-24T11:23:23.911Z,100939.97
2022-11-24T11:25:50.434Z,100940.25
2022-11-24T11:28:30.018Z,100948.22
2022-11-24T11:31:22.030Z,100941.72
2022-11-24T11:34:26.730Z,100939.03
2022-11-24T11:36:57.243Z,100929.59
2022-11-24T11:39:35.556Z,100931.06
2022-11-24T11:42:45.373Z,100926.09
2022-11-24T11:45:05.520Z,100929.25
2022-11-24T11:47:41.544Z,100918.19
2022-11-24T11:50:16.452Z,100932.28
2022-11-24T11:52:59.559Z,100927.28
2022-11-24T11:55:34.018Z,100930.66
2022-11-24T11:58:21.644Z,100930.72
2022-11-24T12:01:17.146Z,100937.22
2022-11-24T12:03:59.752Z,100939.03
2022-11-24T12:07:03.533Z,100934.22
2022-11-24T12:10:06.727Z,100940.34
2022-11-24T12:13:03.376Z,100935.31
2022-11-24T12:15:53.101Z,100928.28
2022-11-24T12:21:26.566Z,100936.06
2022-11-24T12:24:00.707Z,100937.28
2022-11-24T12:26:30.027Z,100943.13
2022-11-24T12:29:08.550Z,100940.91
2022-11-24T12:32:08.276Z,100940.63
2022-11-24T12:34:46.611Z,100945.09
2022-11-24T12:37:35.060Z,100940.31
2022-11-24T12:40:01.387Z,100947.19
2022-11-24T12:43:06.891Z,100959.16
2022-11-24T12:46:20.281Z,100961.94
2022-11-24T12:49:08.582Z,100967.38
2022-11-24T12:51:52.075Z,100965.88
2022-11-24T12:54:21.010Z,100962.38
2022-11-24T12:57:12.501Z,100961.00
2022-11-24T13:00:07.749Z,100952.63
2022-11-24T13:02:49.382Z,100919.50
2022-11-24T13:05:27.844Z,100953.69
2022-11-24T13:08:01.340Z,100932.28
2022-11-24T13:13:19.688Z,100950.22
2022-11-24T13:18:57.214Z,100965.66
2022-11-24T13:21:47.185Z,100956.25
2022-11-24T13:24:16.936Z,100959.28
2022-11-24T13:26:49.514Z,100963.00
2022-11-24T13:29:28.516Z,100955.31
2022-11-24T13:32:15.341Z,100949.41
2022-11-24T13:34:49.826Z,100953.88
2022-11-24T13:37:40.435Z,100963.19
2022-11-24T13:40:13.294Z,100951.56
2022-11-24T13:42:54.798Z,100955.56
2022-11-24T13:45:39.770Z,100958.78
2022-11-24T13:48:22.683Z,100965.25
2022-11-24T13:50:53.273Z,100960.97
2022-11-24T13:53:34.984Z,100951.38
2022-11-24T13:56:09.581Z,100957.72
2022-11-24T13:58:41.046Z,100967.50
2022-11-24T14:01:17.768Z,100960.50
2022-11-24T14:04:35.000Z,100960.50
2022-11-24T14:07:14.363Z,100960.50
2022-11-24T14:09:44.863Z,100965.00
2022-11-24T14:12:26.644Z,100957.13
2022-11-24T14:14:56.830Z,100956.28
2022-11-24T14:17:27.735Z,100962.50
2022-11-24T14:19:58.764Z,100950.22
2022-11-24T14:22:40.277Z,100952.97
2022-11-24T14:25:30.702Z,100936.28
2022-11-24T14:27:59.061Z,100947.75
2022-11-24T14:30:26.394Z,100954.81
2022-11-24T14:32:55.230Z,100951.34
2022-11-24T14:35:30.360Z,100952.28
2022-11-24T14:37:57.127Z,100957.59
2022-11-24T14:40:46.005Z,100950.56
2022-11-24T14:43:32.825Z,100948.84
2022-11-24T14:46:02.655Z,100949.75
2022-11-24T14:48:32.267Z,100940.94
2022-11-24T14:51:15.969Z,100945.38
2022-11-24T14:53:45.340Z,100941.88
2022-11-24T14:56:33.183Z,100939.22
2022-11-24T14:58:59.950Z,100942.78
2022-11-24T15:01:26.421Z,100955.13
2022-11-24T15:04:26.491Z,100957.75
2022-11-24T15:07:25.494Z,100959.53
2022-11-24T15:09:54.852Z,100956.00
2022-11-24T15:12:30.523Z,100954.25
2022-11-24T15:15:01.469Z,100960.41
2022-11-24T15:17:29.432Z,100955.13
2022-11-24T15:20:07.852Z,100963.94
2022-11-24T15:22:36.707Z,100963.06
2022-11-24T15:25:24.146Z,100964.84
2022-11-24T15:27:51.272Z,100963.06
2022-11-24T15:30:17.772Z,100962.19
2022-11-24T15:32:50.811Z,100966.56
2022-11-24T15:35:17.246Z,100969.19
2022-11-24T15:37:43.661Z,100959.53
2022-11-24T15:40:11.742Z,100971.84
2022-11-24T15:42:38.156Z,100971.81
2022-11-24T15:45:05.546Z,100963.00
2022-11-24T15:47:31.891Z,100963.88
2022-11-24T15:49:58.275Z,100958.59
2022-11-24T15:52:24.662Z,100954.22
2022-11-24T15:54:55.384Z,100948.03
2022-11-24T15:57:21.824Z,100946.25
2022-11-24T15:59:48.279Z,100951.53
2022-11-24T16:02:14.706Z,100952.38
2022-11-24T16:04:41.643Z,100955.88
2022-11-24T16:07:14.740Z,100954.97
2022-11-24T16:09:41.201Z,100957.59
2022-11-24T16:12:10.804Z,100964.56
2022-11-24T16:14:37.472Z,100957.53
2022-11-24T16:17:05.162Z,100962.81
2022-11-24T16:19:42.053Z,100957.50
2022-11-24T16:22:12.083Z,100955.75
2022-11-24T16:24:39.243Z,100962.75
2022-11-24T16:27:05.586Z,100962.59
2022-11-24T16:29:36.907Z,100965.25
2022-11-24T16:32:05.191Z,100971.34
2022-11-24T16:34:31.904Z,100969.59
2022-11-24T16:36:58.456Z,100965.19
2022-11-24T16:39:24.831Z,100969.50
2022-11-24T16:41:51.252Z,100972.16
2022-11-24T16:44:17.607Z,100977.41
2022-11-24T16:46:44.687Z,100967.75
2022-11-24T16:49:11.152Z,100973.88
2022-11-24T16:51:37.792Z,100971.16
2022-11-24T16:54:04.406Z,100977.31
2022-11-24T16:56:31.434Z,100972.94
2022-11-24T16:58:57.879Z,100969.41
2022-11-24T17:01:25.831Z,100959.69
2022-11-24T17:03:52.282Z,100964.13
2022-11-24T17:06:19.084Z,100965.00
2022-11-24T17:08:49.209Z,100970.19
2022-11-24T17:11:19.591Z,100960.50
2022-11-24T17:13:47.323Z,100957.84
2022-11-24T17:16:16.711Z,100954.31
2022-11-24T17:18:44.055Z,100950.78
2022-11-24T17:21:15.179Z,100952.47
2022-11-24T17:23:42.077Z,100963.03
2022-11-24T17:26:12.381Z,100963.06
2022-11-24T17:28:39.678Z,100953.38
2022-11-24T17:31:18.839Z,100956.91
2022-11-24T17:33:45.382Z,100960.44
2022-11-24T17:36:11.755Z,100950.72
2022-11-24T17:38:38.229Z,100960.34
2022-11-24T17:41:05.112Z,100955.97
2022-11-24T17:43:36.236Z,100950.69
2022-11-24T17:46:18.052Z,100954.16
2022-11-24T17:48:47.872Z,100955.88
2022-11-24T17:51:16.797Z,100960.22
2022-11-24T17:53:45.878Z,100954.94
2022-11-24T17:56:14.631Z,100956.69
2022-11-24T17:58:44.002Z,100954.94
2022-11-24T18:01:12.221Z,100953.16
2022-11-24T18:03:39.763Z,100959.25
2022-11-24T18:06:14.166Z,100956.59
2022-11-24T18:08:43.027Z,100956.56
2022-11-24T18:11:16.720Z,100963.56
2022-11-24T18:14:00.960Z,100952.16
2022-11-24T18:16:30.232Z,100960.03
2022-11-24T18:19:14.068Z,100957.41
2022-11-24T18:21:42.153Z,100955.59
2022-11-24T18:24:10.235Z,100954.72
2022-11-24T18:26:37.192Z,100945.13
2022-11-24T18:29:03.918Z,100953.00
2022-11-24T18:31:31.273Z,100942.53
2022-11-24T18:33:57.801Z,100936.34
2022-11-24T18:36:30.034Z,100942.44
2022-11-24T18:38:57.672Z,100929.22
2022-11-24T18:41:25.979Z,100936.31
2022-11-24T18:43:52.801Z,100945.09
2022-11-24T18:46:19.520Z,100943.28
2022-11-24T18:48:46.983Z,100960.75
2022-11-24T18:51:17.638Z,100944.97
2022-11-24T18:53:45.960Z,100948.44
2022-11-24T18:56:15.348Z,100948.38
2022-11-24T18:58:42.704Z,100940.47
2022-11-24T19:01:13.631Z,100932.53
2022-11-24T19:03:48.061Z,100935.06
2022-11-24T19:06:19.559Z,100937.72
2022-11-24T19:08:46.511Z,100931.53
2022-11-24T19:11:18.009Z,100925.44
2022-11-24T19:13:44.502Z,100933.19
2022-11-24T19:16:12.285Z,100930.53
2022-11-24T19:18:38.757Z,100924.38
2022-11-24T19:21:05.773Z,100935.78
2022-11-24T19:23:32.204Z,100928.72
2022-11-24T19:26:03.084Z,100919.00
2022-11-24T19:28:30.078Z,100907.66
2022-11-24T19:31:08.258Z,100917.28
2022-11-24T19:33:35.287Z,100924.25
2022-11-24T19:36:07.637Z,100920.75
2022-11-24T19:38:35.331Z,100925.13
2022-11-24T19:41:06.964Z,100924.25
2022-11-24T19:43:34.493Z,100918.06
2022-11-24T19:46:08.945Z,100931.19
2022-11-24T19:48:40.361Z,100929.38
2022-11-24T19:51:10.104Z,100929.34
2022-11-24T19:53:36.659Z,100938.94
2022-11-24T19:56:05.314Z,100926.66
2022-11-24T19:58:32.507Z,100919.59
2022-11-24T20:01:14.965Z,100929.25
2022-11-24T20:03:43.335Z,100923.88
2022-11-24T20:06:12.218Z,100937.97
2022-11-24T20:08:39.457Z,100945.78
2022-11-24T20:11:12.117Z,100921.25
2022-11-24T20:13:40.076Z,100940.53
2022-11-24T20:16:11.774Z,100935.22
2022-11-24T20:18:42.132Z,100915.13
2022-11-24T20:21:17.448Z,100911.66
2022-11-24T20:23:45.250Z,100912.56
2022-11-24T20:26:19.622Z,100919.59
2022-11-24T20:28:47.348Z,100917.81
2022-11-24T20:31:16.523Z,100912.56
2022-11-24T20:33:43.411Z,100912.53
2022-11-24T20:36:18.627Z,100905.53
2022-11-24T20:38:49.563Z,100914.25
2022-11-24T20:41:21.897Z,100906.38
2022-11-24T20:43:49.371Z,100902.94
2022-11-24T20:46:24.440Z,100914.31
2022-11-24T20:48:53.605Z,100909.97
2022-11-24T20:51:22.963Z,100905.63
2022-11-24T20:53:50.710Z,100941.50
2022-11-24T20:56:20.108Z,100921.34
2022-11-24T20:58:46.790Z,100922.94
2022-11-24T21:01:16.456Z,100921.81
2022-11-24T21:03:46.081Z,100913.00
2022-11-24T21:06:13.888Z,100906.16
2022-11-24T21:08:42.069Z,100901.81
2022-11-24T21:11:11.615Z,100898.44
2022-11-24T21:13:40.028Z,100901.13
2022-11-24T21:16:19.390Z,100902.00
2022-11-24T21:18:47.569Z,100892.44
2022-11-24T21:21:14.561Z,100901.22
2022-11-24T21:23:40.985Z,100904.66
2022-11-24T21:26:13.078Z,100912.56
2022-11-24T21:28:44.036Z,100900.41
2022-11-24T21:31:16.422Z,100912.69
2022-11-24T21:33:52.267Z,100910.00
2022-11-24T21:36:21.919Z,100902.19
2022-11-24T21:38:55.790Z,100912.72
2022-11-24T21:41:23.705Z,100908.41
2022-11-24T21:43:50.368Z,100900.50
2022-11-24T21:46:17.265Z,100901.41
2022-11-24T21:48:43.784Z,100892.75
2022-11-24T21:51:15.963Z,100895.41
2022-11-24T21:53:42.877Z,100901.59
2022-11-24T21:56:20.629Z,100890.19
2022-11-24T21:58:48.136Z,100896.31
2022-11-24T22:01:16.039Z,100905.94
2022-11-24T22:03:42.636Z,100883.22
2022-11-24T22:06:09.270Z,100883.25
2022-11-24T22:08:36.095Z,100885.03
2022-11-24T22:11:08.137Z,100880.66
2022-11-24T22:13:34.855Z,100871.91
2022-11-24T22:16:03.723Z,100869.31
2022-11-24T22:18:32.163Z,100867.53
2022-11-24T22:20:58.628Z,100869.34
2022-11-24T22:23:25.200Z,100869.38
2022-11-24T22:25:51.660Z,100868.47
2022-11-24T22:28:18.283Z,100858.81
2022-11-24T22:30:44.753Z,100864.94
2022-11-24T22:33:13.826Z,100866.78
2022-11-24T22:35:40.231Z,100866.78
2022-11-24T22:38:06.684Z,100868.50
2022-11-24T22:40:33.069Z,100860.63
2022-11-24T22:42:59.604Z,100870.19
2022-11-24T22:45:26.443Z,100869.31
2022-11-24T22:47:56.013Z,100864.94
2022-11-24T22:50:22.461Z,100868.41
2022-11-24T22:52:50.084Z,100872.81
2022-11-24T22:55:16.566Z,100881.59
2022-11-24T22:57:47.962Z,100876.34
2022-11-24T23:00:15.440Z,100876.34
2022-11-24T23:02:41.816Z,100869.28
2022-11-24T23:05:08.577Z,100877.25
2022-11-24T23:07:35.073Z,100881.66
2022-11-24T23:10:02.343Z,100865.91
2022-11-24T23:12:28.824Z,100869.31
2022-11-24T23:14:55.332Z,100882.50
2022-11-24T23:17:21.775Z,100873.72
2022-11-24T23:19:48.179Z,100877.22
2022-11-24T23:22:14.573Z,100874.56
2022-11-24T23:24:40.957Z,100870.22
2022-11-24T23:27:07.371Z,100878.91
2022-11-24T23:29:33.804Z,100871.88
2022-11-24T23:32:00.347Z,100880.63
2022-11-24T23:34:26.748Z,100870.13
2022-11-24T23:36:53.146Z,100864.88
2022-11-24T23:39:19.573Z,100868.34
2022-11-24T23:41:45.954Z,100875.31
2022-11-24T23:44:12.333Z,100870.94
2022-11-24T23:46:38.850Z,100869.22
2022-11-24T23:49:05.219Z,100863.03
2022-11-24T23:51:33.157Z,100862.13
2022-11-24T23:54:00.396Z,100872.59
2022-11-24T23:56:31.390Z,100861.19
2022-11-24T23:58:58.526Z,100871.69
